createdAt,value
2019-05-02T00:01:10.291Z,10.00
2019-05-02T00:03:42.902Z,9.90
2019-05-02T00:06:13.119Z,9.80
2019-05-02T00:08:43.346Z,9.70
2019-05-02T00:11:13.797Z,9.80
2019-05-02T00:13:44.495Z,9.80
2019-05-02T00:16:15.449Z,9.80
2019-05-02T00:18:45.770Z,9.70
2019-05-02T00:21:16.427Z,9.60
2019-05-02T00:23:46.875Z,9.60
2019-05-02T00:26:17.055Z,9.60
2019-05-02T00:28:49.741Z,9.60
2019-05-02T00:31:21.537Z,9.60
2019-05-02T00:33:51.882Z,9.60
2019-05-02T00:36:22.059Z,9.70
2019-05-02T00:38:52.286Z,9.70
2019-05-02T00:41:42.514Z,9.70
2019-05-02T00:44:13.046Z,9.70
2019-05-02T00:46:43.262Z,9.70
2019-05-02T00:49:13.470Z,9.70
2019-05-02T00:51:44.934Z,9.60
2019-05-02T00:54:19.265Z,9.70
2019-05-02T00:56:47.054Z,9.60
2019-05-02T00:59:17.259Z,9.60
2019-05-02T01:01:50.925Z,9.60
2019-05-02T01:04:23.261Z,9.50
2019-05-02T01:06:54.686Z,9.50
2019-05-02T01:09:25.265Z,9.50
2019-05-02T01:11:55.274Z,9.50
2019-05-02T01:14:27.032Z,9.40
2019-05-02T01:16:57.390Z,9.30
2019-05-02T01:19:27.671Z,9.40
2019-05-02T01:21:57.873Z,9.30
2019-05-02T01:24:29.377Z,9.30
2019-05-02T01:27:16.603Z,9.30
2019-05-02T01:29:49.819Z,9.20
2019-05-02T01:32:30.147Z,9.20
2019-05-02T01:34:59.063Z,9.40
2019-05-02T01:37:32.277Z,9.40
2019-05-02T01:40:02.617Z,9.50
2019-05-02T01:42:39.688Z,9.50
2019-05-02T01:45:06.739Z,9.60
2019-05-02T01:47:37.159Z,9.40
2019-05-02T01:50:07.459Z,9.40
2019-05-02T01:52:37.807Z,9.40
2019-05-02T01:55:08.079Z,9.50
2019-05-02T01:57:39.922Z,9.60
2019-05-02T02:00:11.854Z,9.60
2019-05-02T02:02:42.036Z,9.50
2019-05-02T02:05:12.358Z,9.40
2019-05-02T02:07:42.620Z,9.30
2019-05-02T02:10:15.012Z,9.30
2019-05-02T02:13:02.920Z,9.40
2019-05-02T02:15:16.784Z,9.20
2019-05-02T02:17:51.263Z,9.10
2019-05-02T02:20:23.238Z,9.10
2019-05-02T02:23:14.108Z,9.00
2019-05-02T02:25:45.835Z,9.00
2019-05-02T02:28:34.411Z,8.90
2019-05-02T02:31:07.760Z,9.00
2019-05-02T02:33:40.815Z,9.20
2019-05-02T02:36:08.507Z,9.10
2019-05-02T02:38:38.779Z,9.00
2019-05-02T02:41:17.546Z,9.10
2019-05-02T02:43:54.629Z,9.10
2019-05-02T02:46:22.935Z,9.20
2019-05-02T02:48:53.145Z,9.30
2019-05-02T02:51:25.767Z,9.20
2019-05-02T02:54:02.700Z,9.10
2019-05-02T02:56:27.232Z,9.20
2019-05-02T02:58:57.433Z,9.00
2019-05-02T03:01:29.283Z,9.00
2019-05-02T03:04:01.959Z,9.00
2019-05-02T03:06:31.646Z,8.90
2019-05-02T03:09:01.836Z,8.80
2019-05-02T03:11:41.336Z,8.70
2019-05-02T03:14:19.577Z,8.60
2019-05-02T03:16:49.937Z,8.60
2019-05-02T03:19:21.408Z,8.70
2019-05-02T03:22:01.101Z,8.70
2019-05-02T03:24:28.650Z,8.60
2019-05-02T03:26:59.018Z,8.60
2019-05-02T03:29:39.265Z,8.50
2019-05-02T03:32:15.054Z,8.40
2019-05-02T03:34:47.163Z,8.50
2019-05-02T03:37:10.814Z,8.50
2019-05-02T03:39:37.740Z,8.50
2019-05-02T03:42:08.002Z,8.50
2019-05-02T03:44:38.216Z,8.60
2019-05-02T03:47:08.409Z,8.70
2019-05-02T03:49:41.037Z,8.60
2019-05-02T03:52:10.496Z,8.60
2019-05-02T03:54:49.761Z,8.70
2019-05-02T03:57:14.304Z,8.50
2019-05-02T03:59:44.506Z,8.70
2019-05-02T04:02:20.338Z,8.80
2019-05-02T04:04:46.614Z,8.80
2019-05-02T04:07:16.828Z,9.00
2019-05-02T04:09:47.044Z,9.10
2019-05-02T04:12:21.243Z,9.20
2019-05-02T04:14:55.605Z,9.40
2019-05-02T04:17:21.086Z,9.50
2019-05-02T04:19:51.292Z,9.60
2019-05-02T04:22:21.894Z,9.70
2019-05-02T04:24:56.772Z,9.90
2019-05-02T04:27:27.667Z,9.90
2019-05-02T04:29:57.279Z,10.00
2019-05-02T04:32:30.457Z,10.00
2019-05-02T04:35:00.663Z,10.20
2019-05-02T04:37:34.309Z,10.40
2019-05-02T04:40:08.104Z,10.40
2019-05-02T04:42:39.142Z,10.40
2019-05-02T04:45:21.646Z,10.40
2019-05-02T04:47:42.501Z,10.50
2019-05-02T04:50:18.124Z,10.60
2019-05-02T04:52:48.426Z,10.80
2019-05-02T04:55:26.147Z,10.90
2019-05-02T04:57:50.995Z,10.80
2019-05-02T05:00:29.196Z,11.00
2019-05-02T05:02:59.434Z,11.00
2019-05-02T05:05:31.276Z,11.20
2019-05-02T05:08:01.587Z,11.40
2019-05-02T05:10:39.952Z,11.70
2019-05-02T05:13:03.731Z,11.90
2019-05-02T05:15:41.128Z,12.20
2019-05-02T05:18:11.821Z,12.70
2019-05-02T05:20:40.354Z,13.00
2019-05-02T05:23:10.406Z,13.50
2019-05-02T05:25:42.410Z,13.90
2019-05-02T05:28:12.622Z,14.20
2019-05-02T05:30:45.424Z,14.50
2019-05-02T05:33:14.715Z,14.80
2019-05-02T05:35:50.967Z,15.30
2019-05-02T05:38:18.210Z,16.10
2019-05-02T05:40:50.302Z,16.60
2019-05-02T05:43:20.764Z,17.40
2019-05-02T05:45:56.604Z,18.00
2019-05-02T05:48:22.870Z,18.30
2019-05-02T05:50:53.091Z,18.60
2019-05-02T05:53:24.567Z,19.20
2019-05-02T05:55:58.909Z,19.50
2019-05-02T05:58:28.398Z,19.90
2019-05-02T06:00:59.701Z,19.80
2019-05-02T06:03:33.931Z,19.80
2019-05-02T06:06:01.882Z,20.00
2019-05-02T06:08:32.110Z,20.10
2019-05-02T06:11:02.366Z,20.30
2019-05-02T06:13:32.585Z,20.70
2019-05-02T06:16:03.405Z,20.90
2019-05-02T06:18:36.493Z,20.90
2019-05-02T06:21:08.826Z,21.00
2019-05-02T06:23:41.250Z,20.90
2019-05-02T06:26:13.699Z,20.90
2019-05-02T06:28:43.263Z,20.80
2019-05-02T06:31:17.073Z,21.00
2019-05-02T06:33:46.594Z,21.40
2019-05-02T06:36:16.862Z,21.60
2019-05-02T06:38:47.110Z,21.80
2019-05-02T06:41:20.930Z,22.20
2019-05-02T06:43:49.495Z,22.20
2019-05-02T06:46:21.964Z,22.40
2019-05-02T06:48:52.238Z,23.30
2019-05-02T06:51:22.816Z,24.00
2019-05-02T06:53:53.021Z,24.60
2019-05-02T06:56:23.291Z,24.90
2019-05-02T06:58:53.518Z,25.60
2019-05-02T07:01:23.746Z,26.30
2019-05-02T07:03:53.964Z,26.40
2019-05-02T07:06:24.422Z,26.30
2019-05-02T07:08:54.990Z,26.80
2019-05-02T07:11:25.442Z,27.60
2019-05-02T07:14:31.898Z,28.20
2019-05-02T07:17:05.632Z,28.50
2019-05-02T07:19:38.390Z,28.70
2019-05-02T07:22:09.871Z,29.00
2019-05-02T07:24:40.088Z,29.10
2019-05-02T07:27:10.357Z,29.70
2019-05-02T07:29:40.823Z,29.50
2019-05-02T07:32:11.514Z,30.40
2019-05-02T07:34:44.144Z,30.30
2019-05-02T07:37:14.020Z,29.90
2019-05-02T07:39:44.278Z,29.60
2019-05-02T07:42:14.470Z,29.60
2019-05-02T07:44:44.693Z,30.10
2019-05-02T07:47:15.075Z,30.20
2019-05-02T07:49:45.292Z,30.30
2019-05-02T07:52:15.574Z,29.90
2019-05-02T07:54:45.819Z,30.10
2019-05-02T07:57:16.015Z,29.70
2019-05-02T07:59:46.271Z,29.70
2019-05-02T08:02:20.200Z,29.40
2019-05-02T08:04:48.499Z,28.90
2019-05-02T08:07:21.174Z,28.90
2019-05-02T08:09:50.652Z,28.70
2019-05-02T08:12:20.985Z,28.40
2019-05-02T08:15:13.196Z,28.00
2019-05-02T08:17:41.299Z,27.80
2019-05-02T08:20:13.595Z,27.10
2019-05-02T08:22:44.062Z,26.50
2019-05-02T08:25:15.322Z,26.00
2019-05-02T08:27:47.182Z,25.00
2019-05-02T08:30:40.316Z,24.40
2019-05-02T08:33:07.370Z,23.90
2019-05-02T08:35:37.578Z,23.70
2019-05-02T08:38:12.632Z,23.70
2019-05-02T08:40:42.422Z,23.60
2019-05-02T08:43:11.684Z,23.70
2019-05-02T08:45:42.358Z,23.60
2019-05-02T08:48:12.550Z,23.60
2019-05-02T08:50:42.739Z,23.80
2019-05-02T08:53:14.285Z,23.80
2019-05-02T08:55:45.280Z,24.00
2019-05-02T08:58:17.132Z,24.30
2019-05-02T09:00:47.651Z,24.30
2019-05-02T09:03:18.179Z,24.40
2019-05-02T09:05:48.373Z,24.60
2019-05-02T09:08:18.681Z,24.70
2019-05-02T09:10:48.882Z,24.80
2019-05-02T09:13:26.443Z,25.30
2019-05-02T09:15:53.965Z,25.90
2019-05-02T09:18:29.996Z,26.20
2019-05-02T09:20:56.688Z,25.90
2019-05-02T09:23:31.940Z,25.30
2019-05-02T09:25:59.400Z,24.60
2019-05-02T09:28:29.639Z,24.30
2019-05-02T09:31:05.006Z,24.70
2019-05-02T09:33:32.267Z,25.00
2019-05-02T09:36:08.375Z,24.50
2019-05-02T09:38:38.630Z,25.00
2019-05-02T09:41:16.982Z,25.60
2019-05-02T09:43:42.534Z,26.20
2019-05-02T09:46:16.501Z,26.70
2019-05-02T09:48:44.775Z,26.80
2019-05-02T09:51:17.501Z,27.10
2019-05-02T09:53:47.119Z,27.80
2019-05-02T09:56:17.312Z,28.50
2019-05-02T09:58:49.306Z,28.80
2019-05-02T10:01:22.375Z,28.60
2019-05-02T10:03:52.694Z,28.00
2019-05-02T10:06:23.019Z,27.00
2019-05-02T10:08:54.742Z,26.20
2019-05-02T10:11:26.271Z,26.70
2019-05-02T10:13:56.630Z,26.80
2019-05-02T10:16:27.403Z,26.30
2019-05-02T10:19:00.351Z,26.20
2019-05-02T10:21:31.668Z,25.80
2019-05-02T10:24:03.700Z,25.10
2019-05-02T10:26:49.379Z,24.50
2019-05-02T10:29:21.004Z,23.60
2019-05-02T10:31:52.647Z,22.90
2019-05-02T10:34:23.084Z,22.30
2019-05-02T10:36:58.566Z,21.60
2019-05-02T10:39:28.520Z,21.00
2019-05-02T10:41:57.664Z,20.60
2019-05-02T10:44:34.863Z,20.10
2019-05-02T10:47:03.404Z,19.70
2019-05-02T10:49:35.257Z,19.40
2019-05-02T10:52:05.468Z,19.10
2019-05-02T10:54:37.553Z,19.10
2019-05-02T10:57:07.585Z,18.90
2019-05-02T10:59:37.819Z,18.60
2019-05-02T11:02:16.532Z,18.30
2019-05-02T11:04:52.492Z,18.20
2019-05-02T11:07:26.355Z,18.10
2019-05-02T11:09:57.336Z,18.00
2019-05-02T11:12:40.287Z,17.90
2019-05-02T11:15:08.234Z,17.90
2019-05-02T11:17:42.222Z,17.80
2019-05-02T11:20:12.575Z,17.80
2019-05-02T11:22:42.877Z,17.70
2019-05-02T11:25:13.073Z,17.70
2019-05-02T11:27:43.282Z,17.40
2019-05-02T11:30:16.770Z,17.30
2019-05-02T11:32:45.452Z,17.30
2019-05-02T11:35:15.668Z,17.20
2019-05-02T11:37:46.161Z,17.20
2019-05-02T11:40:16.430Z,17.10
2019-05-02T11:42:47.721Z,17.30
2019-05-02T11:45:17.927Z,17.50
2019-05-02T11:48:11.913Z,17.60
2019-05-02T11:50:42.248Z,17.40
2019-05-02T11:53:23.276Z,17.20
2019-05-02T11:55:44.600Z,17.10
2019-05-02T11:58:14.895Z,17.10
2019-05-02T12:00:49.429Z,17.10
2019-05-02T12:03:18.744Z,17.10
2019-05-02T12:05:48.960Z,17.10
2019-05-02T12:08:19.174Z,17.10
2019-05-02T12:10:49.377Z,16.90
2019-05-02T12:13:19.608Z,16.90
2019-05-02T12:15:51.764Z,17.10
2019-05-02T12:18:23.277Z,17.10
2019-05-02T12:20:53.713Z,17.40
2019-05-02T12:23:24.016Z,17.40
2019-05-02T12:25:54.315Z,17.40
2019-05-02T12:28:24.586Z,17.30
2019-05-02T12:30:54.858Z,17.30
2019-05-02T12:33:26.948Z,17.00
2019-05-02T12:35:57.132Z,16.80
2019-05-02T12:38:27.353Z,16.60
2019-05-02T12:40:58.002Z,16.40
2019-05-02T12:43:28.354Z,16.20
2019-05-02T12:45:58.545Z,16.00
2019-05-02T12:48:28.838Z,15.70
2019-05-02T12:50:59.026Z,15.80
2019-05-02T12:53:29.247Z,15.90
2019-05-02T12:55:59.439Z,16.20
2019-05-02T12:58:29.677Z,16.30
2019-05-02T13:00:59.873Z,16.60
2019-05-02T13:03:35.794Z,16.90
2019-05-02T13:06:06.070Z,17.10
2019-05-02T13:08:38.038Z,17.30
2019-05-02T13:11:24.989Z,17.40
2019-05-02T13:13:55.270Z,17.60
2019-05-02T13:16:25.464Z,17.50
2019-05-02T13:18:57.205Z,17.60
2019-05-02T13:21:41.486Z,17.70
2019-05-02T13:24:07.477Z,17.70
2019-05-02T13:26:36.274Z,17.50
2019-05-02T13:29:06.538Z,17.20
2019-05-02T13:31:38.500Z,17.00
2019-05-02T13:34:22.093Z,17.00
2019-05-02T13:36:53.977Z,17.10
2019-05-02T13:39:39.616Z,17.00
2019-05-02T13:42:09.900Z,16.90
2019-05-02T13:44:44.282Z,16.80
2019-05-02T13:47:16.122Z,17.00
2019-05-02T13:49:54.097Z,17.40
2019-05-02T13:52:18.399Z,17.60
2019-05-02T13:54:49.235Z,17.60
2019-05-02T13:57:21.643Z,17.80
2019-05-02T13:59:52.732Z,18.20
2019-05-02T14:02:33.951Z,18.50
2019-05-02T14:05:07.579Z,18.40
2019-05-02T14:07:38.455Z,18.40
2019-05-02T14:10:11.942Z,18.70
2019-05-02T14:12:44.054Z,18.80
2019-05-02T14:15:14.871Z,18.90
2019-05-02T14:17:45.139Z,19.00
2019-05-02T14:20:22.278Z,18.90
2019-05-02T14:22:52.826Z,19.00
2019-05-02T14:25:23.492Z,18.80
2019-05-02T14:27:55.735Z,18.70
2019-05-02T14:30:37.228Z,18.40
2019-05-02T14:33:02.396Z,18.30
2019-05-02T14:35:39.190Z,18.30
2019-05-02T14:38:13.666Z,18.40
2019-05-02T14:40:52.896Z,18.50
2019-05-02T14:43:46.151Z,18.60
2019-05-02T14:46:13.769Z,18.90
2019-05-02T14:48:45.330Z,19.00
2019-05-02T14:51:16.880Z,19.20
2019-05-02T14:53:47.862Z,19.30
2019-05-02T14:56:22.911Z,19.40
2019-05-02T14:58:53.169Z,19.30
2019-05-02T15:01:26.157Z,19.00
2019-05-02T15:03:58.300Z,18.80
2019-05-02T15:06:27.241Z,18.70
2019-05-02T15:08:57.498Z,18.40
2019-05-02T15:11:32.201Z,18.10
2019-05-02T15:14:00.568Z,18.20
2019-05-02T15:16:40.369Z,18.40
2019-05-02T15:19:33.446Z,18.70
2019-05-02T15:22:03.936Z,18.80
2019-05-02T15:24:37.501Z,19.00
2019-05-02T15:27:11.661Z,19.10
2019-05-02T15:29:37.827Z,19.10
2019-05-02T15:32:15.603Z,19.00
2019-05-02T15:35:04.644Z,19.00
2019-05-02T15:37:35.968Z,19.20
2019-05-02T15:42:38.457Z,19.50
2019-05-02T15:45:08.895Z,19.30
2019-05-02T15:47:41.655Z,19.10
2019-05-02T15:50:14.765Z,18.80
2019-05-02T15:52:44.732Z,18.60
2019-05-02T15:55:14.929Z,18.60
2019-05-02T15:57:46.373Z,18.60
2019-05-02T16:00:25.707Z,18.70
2019-05-02T16:02:56.312Z,18.70
2019-05-02T16:05:26.914Z,18.60
2019-05-02T16:08:05.267Z,18.90
2019-05-02T16:10:31.587Z,19.10
2019-05-02T16:13:01.346Z,19.20
2019-05-02T16:15:32.645Z,19.00
2019-05-02T16:18:05.150Z,19.20
2019-05-02T16:20:49.169Z,19.40
2019-05-02T16:23:27.381Z,19.50
2019-05-02T16:25:52.407Z,19.20
2019-05-02T16:28:22.890Z,18.90
2019-05-02T16:30:54.786Z,18.60
2019-05-02T16:33:25.181Z,18.40
2019-05-02T16:35:55.454Z,18.10
2019-05-02T16:38:26.791Z,17.90
2019-05-02T16:41:01.700Z,17.90
2019-05-02T16:43:32.766Z,18.20
2019-05-02T16:46:06.829Z,18.50
2019-05-02T16:48:39.052Z,18.70
2019-05-02T16:51:27.597Z,18.80
2019-05-02T16:53:42.709Z,18.90
2019-05-02T16:56:12.938Z,19.10
2019-05-02T16:58:47.086Z,19.20
2019-05-02T17:01:23.595Z,19.40
2019-05-02T17:03:47.883Z,19.40
2019-05-02T17:06:22.468Z,19.40
2019-05-02T17:08:58.669Z,19.20
2019-05-02T17:11:32.351Z,19.10
2019-05-02T17:14:06.879Z,19.00
2019-05-02T17:16:34.493Z,18.80
2019-05-02T17:19:04.698Z,18.80
2019-05-02T17:21:52.247Z,18.60
2019-05-02T17:24:06.774Z,18.40
2019-05-02T17:26:36.946Z,18.10
2019-05-02T17:29:07.160Z,18.00
2019-05-02T17:31:37.342Z,17.60
2019-05-02T17:34:07.879Z,17.40
2019-05-02T17:36:38.091Z,17.10
2019-05-02T17:39:08.468Z,16.90
2019-05-02T17:41:42.393Z,16.70
2019-05-02T17:44:12.855Z,16.50
2019-05-02T17:46:44.144Z,16.40
2019-05-02T17:49:14.590Z,16.40
2019-05-02T17:52:05.773Z,16.20
2019-05-02T17:54:34.337Z,16.10
2019-05-02T17:57:04.531Z,15.80
2019-05-02T17:59:37.619Z,15.70
2019-05-02T18:02:11.623Z,15.60
2019-05-02T18:04:38.550Z,15.70
2019-05-02T18:07:08.842Z,15.70
2019-05-02T18:09:39.014Z,15.80
2019-05-02T18:12:12.681Z,15.90
2019-05-02T18:14:42.158Z,15.70
2019-05-02T18:17:12.807Z,15.80
2019-05-02T18:19:43.090Z,15.70
2019-05-02T18:22:23.567Z,15.80
2019-05-02T18:24:46.456Z,15.60
2019-05-02T18:27:16.732Z,15.70
2019-05-02T18:29:47.194Z,15.70
2019-05-02T18:32:22.132Z,15.60
2019-05-02T18:34:51.764Z,15.60
2019-05-02T18:37:21.892Z,15.60
2019-05-02T18:39:55.860Z,15.50
2019-05-02T18:42:25.634Z,15.50
2019-05-02T18:44:56.079Z,15.40
2019-05-02T18:47:26.306Z,15.50
2019-05-02T18:50:01.810Z,15.30
2019-05-02T18:52:38.043Z,15.10
2019-05-02T18:55:02.154Z,14.90
2019-05-02T18:57:32.623Z,14.90
2019-05-02T19:00:03.368Z,14.70
2019-05-02T19:02:35.613Z,14.70
2019-05-02T19:05:13.543Z,14.50
2019-05-02T19:07:38.353Z,14.50
2019-05-02T19:10:08.539Z,14.50
2019-05-02T19:12:38.791Z,14.30
2019-05-02T19:15:09.211Z,14.40
2019-05-02T19:17:40.513Z,14.50
2019-05-02T19:20:22.066Z,14.50
2019-05-02T19:22:56.308Z,14.50
2019-05-02T19:25:23.894Z,14.50
2019-05-02T19:27:57.578Z,14.40
2019-05-02T19:30:33.055Z,14.40
2019-05-02T19:33:07.677Z,14.50
2019-05-02T19:35:37.681Z,14.40
2019-05-02T19:38:07.246Z,14.30
2019-05-02T19:40:37.717Z,14.20
2019-05-02T19:43:07.954Z,14.30
2019-05-02T19:45:38.202Z,14.30
2019-05-02T19:48:08.415Z,14.20
2019-05-02T19:50:43.362Z,14.30
2019-05-02T19:53:18.009Z,14.40
2019-05-02T19:55:43.053Z,14.20
2019-05-02T19:58:17.237Z,14.30
2019-05-02T20:00:47.514Z,14.10
2019-05-02T20:03:21.647Z,14.20
2019-05-02T20:05:51.869Z,14.40
2019-05-02T20:08:24.519Z,14.20
2019-05-02T20:10:58.340Z,14.30
2019-05-02T20:13:29.648Z,14.30
2019-05-02T20:16:09.574Z,14.00
2019-05-02T20:18:43.819Z,13.80
2019-05-02T20:21:23.230Z,13.70
2019-05-02T20:23:45.146Z,13.10
2019-05-02T20:26:17.151Z,13.10
2019-05-02T20:28:47.072Z,13.10
2019-05-02T20:31:17.090Z,13.00
2019-05-02T20:33:47.266Z,13.10
2019-05-02T20:36:17.541Z,13.20
2019-05-02T20:38:47.802Z,13.20
2019-05-02T20:41:18.049Z,12.90
2019-05-02T20:43:48.362Z,13.00
2019-05-02T20:46:18.596Z,13.30
2019-05-02T20:48:52.593Z,13.20
2019-05-02T20:51:24.109Z,13.40
2019-05-02T20:53:54.464Z,13.30
2019-05-02T20:56:24.687Z,13.50
2019-05-02T20:58:54.989Z,13.40
2019-05-02T21:01:25.285Z,13.50
2019-05-02T21:03:57.729Z,13.50
2019-05-02T21:06:40.890Z,13.70
2019-05-02T21:09:07.786Z,13.50
2019-05-02T21:12:02.320Z,13.50
2019-05-02T21:14:32.718Z,13.60
2019-05-02T21:17:03.461Z,13.60
2019-05-02T21:19:33.759Z,13.60
2019-05-02T21:22:06.389Z,13.50
2019-05-02T21:24:36.687Z,13.50
2019-05-02T21:27:07.001Z,13.50
2019-05-02T21:29:37.316Z,13.50
2019-05-02T21:32:07.641Z,13.60
2019-05-02T21:34:37.930Z,13.60
2019-05-02T21:37:08.237Z,13.30
2019-05-02T21:39:38.683Z,13.30
2019-05-02T21:42:08.929Z,13.20
2019-05-02T21:44:39.211Z,13.00
2019-05-02T21:47:09.792Z,12.90
2019-05-02T21:49:43.606Z,12.80
2019-05-02T21:52:31.865Z,12.90
2019-05-02T21:55:07.732Z,13.00
2019-05-02T21:57:38.036Z,13.00
2019-05-02T22:00:11.696Z,12.90
2019-05-02T22:02:43.580Z,12.80
2019-05-02T22:05:13.874Z,12.70
2019-05-02T22:07:44.095Z,12.90
2019-05-02T22:10:14.298Z,13.00
2019-05-02T22:12:44.669Z,12.90
2019-05-02T22:15:14.951Z,13.00
2019-05-02T22:17:45.369Z,13.10
2019-05-02T22:20:15.657Z,13.00
2019-05-02T22:22:45.978Z,13.10
2019-05-02T22:25:16.199Z,13.00
2019-05-02T22:27:46.433Z,13.00
2019-05-02T22:30:16.756Z,12.90
2019-05-02T22:32:47.089Z,12.90
2019-05-02T22:35:17.373Z,13.00
2019-05-02T22:37:49.247Z,12.90
2019-05-02T22:40:19.474Z,12.90
2019-05-02T22:42:49.783Z,12.80
2019-05-02T22:45:21.798Z,12.60
2019-05-02T22:47:52.291Z,12.50
2019-05-02T22:50:22.508Z,12.30
2019-05-02T22:52:52.747Z,12.30
2019-05-02T22:55:23.247Z,12.20
2019-05-02T22:57:53.486Z,12.00
2019-05-02T23:00:23.824Z,12.00
2019-05-02T23:02:54.160Z,12.10
2019-05-02T23:05:24.400Z,11.90
2019-05-02T23:07:54.671Z,12.00
2019-05-02T23:10:24.949Z,12.00
2019-05-02T23:12:55.184Z,11.90
2019-05-02T23:15:25.393Z,11.80
2019-05-02T23:17:55.702Z,11.80
2019-05-02T23:20:26.004Z,11.80
2019-05-02T23:23:14.992Z,11.70
2019-05-02T23:25:52.764Z,11.60
2019-05-02T23:28:24.641Z,11.60
2019-05-02T23:30:54.920Z,11.40
2019-05-02T23:33:26.788Z,11.40
2019-05-02T23:35:57.007Z,11.40
2019-05-02T23:38:27.376Z,11.40
2019-05-02T23:40:58.727Z,11.50
2019-05-02T23:43:28.965Z,11.40
2019-05-02T23:45:59.251Z,11.30
2019-05-02T23:48:29.564Z,11.40
2019-05-02T23:51:02.568Z,11.40
2019-05-02T23:53:33.009Z,11.30
2019-05-02T23:56:03.221Z,11.30
2019-05-02T23:58:36.095Z,11.10
